createdAt,value
2023-01-30T00:00:25.530Z,-10965.84
2023-01-30T00:03:31.959Z,-10967.09
2023-01-30T00:06:40.115Z,-10964.59
2023-01-30T00:09:47.810Z,-10964.44
2023-01-30T00:12:59.531Z,-10971.31
2023-01-30T00:16:06.065Z,-10971.16
2023-01-30T00:19:12.467Z,-10973.28
2023-01-30T00:22:18.661Z,-10971.16
2023-01-30T00:25:29.151Z,-10966.53
2023-01-30T00:28:39.708Z,-10969.34
2023-01-30T00:31:45.947Z,-10970.47
2023-01-30T00:34:52.130Z,-10967.25
2023-01-30T00:37:59.494Z,-10956.72
2023-01-30T00:41:06.180Z,-10955.34
2023-01-30T00:44:30.913Z,-10963.19
2023-01-30T00:47:37.119Z,-10963.75
2023-01-30T00:50:46.267Z,-10963.03
2023-01-30T00:53:52.277Z,-10962.75
2023-01-30T00:56:58.522Z,-10967.81
2023-01-30T01:00:09.128Z,-10960.66
2023-01-30T01:03:15.496Z,-10960.09
2023-01-30T01:06:21.836Z,-10964.44
2023-01-30T01:09:28.321Z,-10963.47
2023-01-30T01:12:34.645Z,-10957.56
2023-01-30T01:15:41.955Z,-10961.50
2023-01-30T01:18:48.754Z,-10957.56
2023-01-30T01:21:54.965Z,-10957.84
2023-01-30T01:25:00.978Z,-10960.25
2023-01-30T01:28:06.949Z,-10954.63
2023-01-30T01:31:16.739Z,-10958.97
2023-01-30T01:34:23.030Z,-10952.66
2023-01-30T01:37:32.028Z,-10952.09
2023-01-30T01:40:55.318Z,-10946.22
2023-01-30T01:44:08.560Z,-10944.81
2023-01-30T01:47:16.385Z,-10948.31
2023-01-30T01:50:28.265Z,-10952.53
2023-01-30T01:53:38.599Z,-10949.03
2023-01-30T01:56:48.564Z,-10954.06
2023-01-30T02:00:00.674Z,-10946.50
2023-01-30T02:03:11.808Z,-10944.81
2023-01-30T02:06:19.652Z,-10947.06
2023-01-30T02:09:26.016Z,-10955.19
2023-01-30T02:12:34.010Z,-10957.00
2023-01-30T02:15:40.908Z,-10946.22
2023-01-30T02:18:49.012Z,-10954.34
2023-01-30T02:22:30.635Z,-10956.72
2023-01-30T02:26:17.822Z,-10953.94
2023-01-30T02:30:11.577Z,-10949.72
2023-01-30T02:33:26.698Z,-10952.81
2023-01-30T02:36:47.587Z,-10945.09
2023-01-30T02:40:12.318Z,-10938.81
2023-01-30T02:43:29.423Z,-10941.31
2023-01-30T02:46:45.337Z,-10946.09
2023-01-30T02:50:00.770Z,-10937.69
2023-01-30T02:53:08.436Z,-10939.09
2023-01-30T02:56:14.538Z,-10941.31
2023-01-30T02:59:26.329Z,-10937.97
2023-01-30T03:03:07.436Z,-10937.69
2023-01-30T03:06:43.272Z,-10935.44
2023-01-30T03:09:59.428Z,-10936.28
2023-01-30T03:13:14.700Z,-10939.34
2023-01-30T03:16:26.855Z,-10936.84
2023-01-30T03:19:33.304Z,-10940.47
2023-01-30T03:22:39.502Z,-10933.91
2023-01-30T03:25:49.613Z,-10935.16
2023-01-30T03:28:56.122Z,-10931.53
2023-01-30T03:32:02.006Z,-10939.78
2023-01-30T03:35:08.448Z,-10927.47
2023-01-30T03:38:14.898Z,-10932.22
2023-01-30T03:41:22.334Z,-10932.78
2023-01-30T03:44:28.713Z,-10930.41
2023-01-30T03:47:34.731Z,-10925.34
2023-01-30T03:50:41.080Z,-10928.16
2023-01-30T03:53:47.037Z,-10926.63
2023-01-30T03:56:54.931Z,-10931.94
2023-01-30T04:00:01.242Z,-10931.25
2023-01-30T04:03:07.813Z,-10919.19
2023-01-30T04:06:13.800Z,-10923.13
2023-01-30T04:09:20.230Z,-10922.00
2023-01-30T04:12:27.829Z,-10922.84
2023-01-30T04:15:35.773Z,-10923.81
2023-01-30T04:18:42.133Z,-10917.53
2023-01-30T04:21:48.011Z,-10920.59
2023-01-30T04:24:53.871Z,-10916.97
2023-01-30T04:28:01.458Z,-10923.13
2023-01-30T04:31:09.444Z,-10919.75
2023-01-30T04:34:15.527Z,-10923.81
2023-01-30T04:37:21.780Z,-10918.50
2023-01-30T04:40:27.903Z,-10917.53
2023-01-30T04:43:35.502Z,-10919.47
2023-01-30T04:46:41.914Z,-10915.41
2023-01-30T04:49:48.275Z,-10918.06
2023-01-30T04:52:54.381Z,-10920.03
2023-01-30T04:56:00.821Z,-10915.84
2023-01-30T04:59:08.371Z,-10910.78
2023-01-30T05:02:14.827Z,-10914.84
2023-01-30T05:05:21.005Z,-10924.22
2023-01-30T05:08:26.871Z,-10913.03
2023-01-30T05:11:33.488Z,-10921.72
2023-01-30T05:14:41.459Z,-10916.53
2023-01-30T05:17:47.839Z,-10922.28
2023-01-30T05:20:53.821Z,-10917.94
2023-01-30T05:23:59.801Z,-10921.28
2023-01-30T05:27:05.849Z,-10914.16
2023-01-30T05:30:13.889Z,-10916.41
2023-01-30T05:33:19.956Z,-10913.59
2023-01-30T05:36:28.500Z,-10921.00
2023-01-30T05:39:34.747Z,-10911.63
2023-01-30T05:42:42.641Z,-10915.84
2023-01-30T05:45:55.672Z,-10913.03
2023-01-30T05:49:01.942Z,-10916.97
2023-01-30T05:52:07.866Z,-10908.56
2023-01-30T05:55:13.884Z,-10913.19
2023-01-30T05:58:19.815Z,-10915.41
2023-01-30T06:01:28.651Z,-10912.06
2023-01-30T06:04:35.597Z,-10910.38
2023-01-30T06:07:41.937Z,-10914.72
2023-01-30T06:10:48.179Z,-10924.22
2023-01-30T06:13:55.002Z,-10920.03
2023-01-30T06:17:02.940Z,-10922.84
2023-01-30T06:20:11.102Z,-10919.06
2023-01-30T06:23:17.774Z,-10934.88
2023-01-30T06:26:23.622Z,-10936.00
2023-01-30T06:29:29.352Z,-10928.44
2023-01-30T06:32:37.067Z,-10936.56
2023-01-30T06:35:44.725Z,-10929.28
2023-01-30T06:38:50.921Z,-10930.69
2023-01-30T06:41:56.860Z,-10933.34
2023-01-30T06:45:03.026Z,-10935.72
2023-01-30T06:48:10.865Z,-10931.66
2023-01-30T06:51:17.240Z,-10932.63
2023-01-30T06:54:23.634Z,-10935.16
2023-01-30T06:57:29.556Z,-10930.69
2023-01-30T07:00:35.858Z,-10947.91
2023-01-30T07:03:43.418Z,-10931.94
2023-01-30T07:06:50.192Z,-10930.53
2023-01-30T07:10:07.342Z,-10928.72
2023-01-30T07:13:15.094Z,-10937.13
2023-01-30T07:16:24.082Z,-10941.31
2023-01-30T07:19:32.027Z,-10947.22
2023-01-30T07:22:38.709Z,-10950.28
2023-01-30T07:25:45.109Z,-10959.53
2023-01-30T07:28:51.409Z,-10966.41
2023-01-30T07:31:58.069Z,-10979.28
2023-01-30T07:35:06.417Z,-10959.97
2023-01-30T07:38:12.961Z,-10973.41
2023-01-30T07:41:19.317Z,-10970.59
2023-01-30T07:44:25.691Z,-10977.75
2023-01-30T07:47:32.177Z,-10985.88
2023-01-30T07:50:40.141Z,-10963.19
2023-01-30T07:53:46.705Z,-10981.13
2023-01-30T07:56:53.384Z,-10983.63
2023-01-30T07:59:59.588Z,-10972.44
2023-01-30T08:03:05.665Z,-10981.81
2023-01-30T08:06:14.067Z,-10975.22
2023-01-30T08:09:20.315Z,-10992.06
2023-01-30T08:12:26.457Z,-10985.03
2023-01-30T08:15:33.643Z,-10996.53
2023-01-30T08:18:39.908Z,-10989.53
2023-01-30T08:21:47.754Z,-10988.53
2023-01-30T08:24:53.895Z,-10994.28
2023-01-30T08:28:00.779Z,-10996.69
2023-01-30T08:31:11.106Z,-10992.91
2023-01-30T08:34:17.416Z,-10999.63
2023-01-30T08:37:25.412Z,-11011.81
2023-01-30T08:40:31.487Z,-11013.38
2023-01-30T08:43:38.099Z,-11026.81
2023-01-30T08:46:44.501Z,-11019.66
2023-01-30T08:49:51.548Z,-11002.44
2023-01-30T08:52:59.359Z,-11031.03
2023-01-30T08:56:06.334Z,-11029.91
2023-01-30T08:59:12.715Z,-11009.16
2023-01-30T09:02:19.082Z,-11047.31
2023-01-30T09:05:25.953Z,-11017.84
2023-01-30T09:08:33.351Z,-11036.66
2023-01-30T09:11:39.649Z,-11041.84
2023-01-30T09:14:45.788Z,-11013.09
2023-01-30T09:17:53.364Z,-10998.09
2023-01-30T09:21:04.786Z,-10999.91
2023-01-30T09:24:12.163Z,-10991.06
2023-01-30T09:27:18.751Z,-10986.59
2023-01-30T09:30:24.998Z,-10980.56
2023-01-30T09:33:31.447Z,-10969.63
2023-01-30T09:36:37.625Z,-10973.00
2023-01-30T09:39:45.285Z,-10969.91
2023-01-30T09:43:16.241Z,-10982.09
2023-01-30T09:46:36.239Z,-10986.59
2023-01-30T09:49:54.499Z,-11017.44
2023-01-30T09:53:07.422Z,-11013.66
2023-01-30T09:56:15.323Z,-11010.84
2023-01-30T09:59:26.827Z,-10996.53
2023-01-30T10:02:42.648Z,-11016.03
2023-01-30T10:06:09.463Z,-11000.47
2023-01-30T10:09:22.624Z,-11013.09
2023-01-30T10:12:45.044Z,-11009.72
2023-01-30T10:15:58.015Z,-11011.25
2023-01-30T10:19:35.699Z,-10984.91
2023-01-30T10:22:56.647Z,-10988.69
2023-01-30T10:26:09.671Z,-10981.13
2023-01-30T10:29:22.899Z,-10976.50
2023-01-30T10:32:34.068Z,-10982.50
2023-01-30T10:35:44.184Z,-10983.91
2023-01-30T10:38:53.614Z,-10983.91
2023-01-30T10:42:10.892Z,-10980.97
2023-01-30T10:45:24.612Z,-10993.19
2023-01-30T10:48:52.895Z,-10983.06
2023-01-30T10:52:08.985Z,-10967.94
2023-01-30T10:55:35.318Z,-10997.66
2023-01-30T10:58:54.570Z,-10995.13
2023-01-30T11:02:13.431Z,-11027.37
2023-01-30T11:05:22.667Z,-11016.88
2023-01-30T11:08:30.438Z,-11049.28
2023-01-30T11:11:48.814Z,-11025.56
2023-01-30T11:14:58.710Z,-11013.94
2023-01-30T11:18:49.743Z,-11002.44
2023-01-30T11:21:43.991Z,-11004.09
2023-01-30T11:25:01.043Z,-11017.56
2023-01-30T11:28:07.647Z,-11024.72
2023-01-30T11:31:38.868Z,-11027.53
2023-01-30T11:35:04.403Z,-11035.81
2023-01-30T11:38:21.384Z,-10993.59
2023-01-30T11:41:28.123Z,-11019.13
2023-01-30T11:44:36.521Z,-11029.91
2023-01-30T11:47:57.280Z,-11014.91
2023-01-30T11:51:07.925Z,-11013.50
2023-01-30T11:54:17.522Z,-11016.44
2023-01-30T11:57:24.101Z,-11018.69
2023-01-30T12:00:39.632Z,-11011.81
2023-01-30T12:03:50.171Z,-11020.09
2023-01-30T12:07:10.039Z,-11008.31
2023-01-30T12:10:28.300Z,-11002.44
2023-01-30T12:13:39.595Z,-11006.06
2023-01-30T12:16:57.906Z,-11012.53
2023-01-30T12:20:14.276Z,-11018.13
2023-01-30T12:23:32.301Z,-11002.44
2023-01-30T12:26:45.527Z,-10985.31
2023-01-30T12:30:00.621Z,-10990.94
2023-01-30T12:33:12.212Z,-10988.81
2023-01-30T12:36:29.702Z,-10999.47
2023-01-30T12:39:49.877Z,-11004.66
2023-01-30T12:43:23.155Z,-11003.69
2023-01-30T12:46:45.489Z,-11027.94
2023-01-30T12:50:03.920Z,-11004.66
2023-01-30T12:53:32.892Z,-11004.66
2023-01-30T12:56:59.445Z,-10991.63
2023-01-30T13:00:27.905Z,-11004.38
2023-01-30T13:03:41.716Z,-11005.50
2023-01-30T13:06:59.401Z,-10990.38
2023-01-30T13:10:16.477Z,-11003.53
2023-01-30T13:13:31.359Z,-11004.38
2023-01-30T13:16:50.143Z,-10992.06
2023-01-30T13:20:05.369Z,-11008.47
2023-01-30T13:23:18.607Z,-10996.69
2023-01-30T13:26:31.456Z,-11012.81
2023-01-30T13:29:41.743Z,-10997.81
2023-01-30T13:32:51.026Z,-10990.38
2023-01-30T13:36:05.159Z,-11015.75
2023-01-30T13:42:34.386Z,-10993.44
2023-01-30T13:45:46.825Z,-10988.25
2023-01-30T13:49:07.838Z,-11015.31
2023-01-30T13:52:21.877Z,-11005.09
2023-01-30T13:55:34.039Z,-10992.63
2023-01-30T13:58:45.341Z,-10990.22
2023-01-30T14:02:22.081Z,-11010.84
2023-01-30T14:06:01.855Z,-10979.84
2023-01-30T14:09:22.350Z,-10970.31
2023-01-30T14:12:34.964Z,-10952.81
2023-01-30T14:15:43.849Z,-10952.25
2023-01-30T14:18:51.701Z,-10955.34
2023-01-30T14:21:59.865Z,-10947.78
2023-01-30T14:25:35.356Z,-10949.44
2023-01-30T14:28:48.387Z,-10948.59
2023-01-30T14:31:55.127Z,-10939.63
2023-01-30T14:35:23.714Z,-10940.91
2023-01-30T14:38:30.885Z,-10939.22
2023-01-30T14:41:37.600Z,-10933.91
2023-01-30T14:44:58.083Z,-10937.41
2023-01-30T14:48:29.430Z,-10928.72
2023-01-30T14:51:44.393Z,-10924.50
2023-01-30T14:54:51.955Z,-10929.84
2023-01-30T14:58:03.969Z,-10922.69
2023-01-30T15:01:10.459Z,-10926.19
2023-01-30T15:04:17.852Z,-10931.25
2023-01-30T15:07:29.884Z,-10922.00
2023-01-30T15:10:50.514Z,-10929.13
2023-01-30T15:14:07.673Z,-10923.81
2023-01-30T15:17:26.997Z,-10922.97
2023-01-30T15:20:45.060Z,-10921.44
2023-01-30T15:24:24.799Z,-10924.38
2023-01-30T15:27:36.152Z,-10923.97
2023-01-30T15:30:57.299Z,-10920.72
2023-01-30T15:34:03.419Z,-10919.34
2023-01-30T15:37:29.718Z,-10921.16
2023-01-30T15:40:38.003Z,-10924.50
2023-01-30T15:44:01.415Z,-10925.63
2023-01-30T15:47:44.039Z,-10922.00
2023-01-30T15:50:53.748Z,-10922.00
2023-01-30T15:54:01.396Z,-10919.63
2023-01-30T15:57:17.387Z,-10915.28
2023-01-30T16:00:28.699Z,-10919.75
2023-01-30T16:03:40.836Z,-10916.13
2023-01-30T16:06:46.842Z,-10918.06
2023-01-30T16:10:06.717Z,-10913.72
2023-01-30T16:13:14.579Z,-10918.06
2023-01-30T16:16:21.467Z,-10917.53
2023-01-30T16:19:30.061Z,-10912.63
2023-01-30T16:22:36.711Z,-10912.06
2023-01-30T16:25:48.758Z,-10908.84
2023-01-30T16:29:02.650Z,-10911.34
2023-01-30T16:32:14.414Z,-10907.16
2023-01-30T16:35:31.081Z,-10911.63
2023-01-30T16:38:40.639Z,-10910.38
2023-01-30T16:41:55.808Z,-10910.38
2023-01-30T16:45:30.527Z,-10916.69
2023-01-30T16:48:38.089Z,-10919.19
2023-01-30T16:51:44.668Z,-10907.72
2023-01-30T16:54:53.283Z,-10908.00
2023-01-30T16:58:02.751Z,-10915.00
2023-01-30T17:01:10.810Z,-10918.06
2023-01-30T17:04:23.415Z,-10917.09
2023-01-30T17:07:38.453Z,-10920.03
2023-01-30T17:10:56.539Z,-10921.16
2023-01-30T17:14:20.172Z,-10920.44
2023-01-30T17:17:27.820Z,-10911.91
2023-01-30T17:20:41.304Z,-10915.00
2023-01-30T17:23:51.791Z,-10921.16
2023-01-30T17:27:01.916Z,-10917.94
2023-01-30T17:30:15.254Z,-10917.38
2023-01-30T17:33:22.859Z,-10915.13
2023-01-30T17:36:30.757Z,-10907.44
2023-01-30T17:39:37.093Z,-10904.22
2023-01-30T17:42:43.199Z,-10904.50
2023-01-30T17:45:49.173Z,-10908.41
2023-01-30T17:48:56.665Z,-10897.50
2023-01-30T17:52:02.704Z,-10903.94
2023-01-30T17:55:11.137Z,-10903.38
2023-01-30T17:58:18.407Z,-10908.00
2023-01-30T18:01:24.658Z,-10905.34
2023-01-30T18:04:32.249Z,-10906.59
2023-01-30T18:07:38.562Z,-10907.28
2023-01-30T18:10:44.558Z,-10906.59
2023-01-30T18:13:51.055Z,-10907.00
2023-01-30T18:17:00.553Z,-10908.28
2023-01-30T18:20:09.588Z,-10896.78
2023-01-30T18:23:16.545Z,-10896.38
2023-01-30T18:26:23.364Z,-10905.63
2023-01-30T18:29:29.706Z,-10892.31
2023-01-30T18:32:40.675Z,-10892.59
2023-01-30T18:35:54.628Z,-10900.44
2023-01-30T18:39:00.876Z,-10897.34
2023-01-30T18:42:08.272Z,-10905.47
2023-01-30T18:45:14.253Z,-10903.50
2023-01-30T18:48:20.235Z,-10900.00
2023-01-30T18:51:29.692Z,-10891.75
2023-01-30T18:54:37.586Z,-10896.66
2023-01-30T18:57:43.831Z,-10903.22
2023-01-30T19:00:49.903Z,-10901.97
2023-01-30T19:03:56.907Z,-10900.00
2023-01-30T19:07:04.404Z,-10899.88
2023-01-30T19:10:12.180Z,-10899.88
2023-01-30T19:13:36.853Z,-10892.31
2023-01-30T19:16:43.010Z,-10891.75
2023-01-30T19:19:49.248Z,-10894.69
2023-01-30T19:22:56.665Z,-10894.56
2023-01-30T19:26:02.779Z,-10898.91
2023-01-30T19:29:08.928Z,-10899.03
2023-01-30T19:32:15.038Z,-10897.34
2023-01-30T19:35:21.957Z,-10894.69
2023-01-30T19:38:29.906Z,-10888.13
2023-01-30T19:41:37.911Z,-10895.97
2023-01-30T19:44:43.997Z,-10890.34
2023-01-30T19:47:50.040Z,-10895.41
2023-01-30T19:50:56.123Z,-10899.31
2023-01-30T19:54:06.423Z,-10899.59
2023-01-30T19:57:12.511Z,-10898.47
2023-01-30T20:00:19.740Z,-10888.97
2023-01-30T20:03:26.200Z,-10884.63
2023-01-30T20:06:34.917Z,-10889.66
2023-01-30T20:09:42.539Z,-10896.22
2023-01-30T20:12:48.991Z,-10894.84
2023-01-30T20:15:56.732Z,-10891.47
2023-01-30T20:19:05.676Z,-10891.47
2023-01-30T20:22:11.991Z,-10898.47
2023-01-30T20:25:19.632Z,-10901.13
2023-01-30T20:28:26.137Z,-10901.84
2023-01-30T20:31:34.777Z,-10894.56
2023-01-30T20:34:41.086Z,-10895.81
2023-01-30T20:37:47.087Z,-10907.44
2023-01-30T20:41:02.341Z,-10891.34
2023-01-30T20:44:10.073Z,-10896.38
2023-01-30T20:47:16.769Z,-10897.63
2023-01-30T20:50:23.055Z,-10896.66
2023-01-30T20:53:29.265Z,-10900.00
2023-01-30T20:56:39.865Z,-10897.78
2023-01-30T20:59:46.861Z,-10902.66
2023-01-30T21:02:53.501Z,-10897.91
2023-01-30T21:06:00.267Z,-10888.97
2023-01-30T21:09:08.331Z,-10892.88
2023-01-30T21:12:16.252Z,-10898.47
2023-01-30T21:15:22.743Z,-10899.59
2023-01-30T21:18:31.569Z,-10904.06
2023-01-30T21:21:40.273Z,-10900.28
2023-01-30T21:24:46.714Z,-10897.91
2023-01-30T21:27:54.626Z,-10906.31
2023-01-30T21:31:06.092Z,-10904.91
2023-01-30T21:34:13.307Z,-10895.13
2023-01-30T21:37:37.096Z,-10900.00
2023-01-30T21:41:08.032Z,-10902.81
2023-01-30T21:44:16.301Z,-10898.19
2023-01-30T21:47:22.826Z,-10903.78
2023-01-30T21:50:28.929Z,-10904.34
2023-01-30T21:53:35.061Z,-10906.03
2023-01-30T21:56:41.459Z,-10901.00
2023-01-30T21:59:49.191Z,-10900.44
2023-01-30T22:02:55.180Z,-10899.19
2023-01-30T22:06:01.195Z,-10905.19
2023-01-30T22:09:08.052Z,-10908.69
2023-01-30T22:12:14.281Z,-10892.88
2023-01-30T22:15:22.762Z,-10900.72
2023-01-30T22:18:28.995Z,-10899.47
2023-01-30T22:21:36.718Z,-10897.91
2023-01-30T22:24:42.737Z,-10895.97
2023-01-30T22:27:48.847Z,-10904.91
2023-01-30T22:31:01.815Z,-10896.94
2023-01-30T22:34:08.969Z,-10909.94
2023-01-30T22:37:16.451Z,-10904.78
2023-01-30T22:40:22.266Z,-10905.47
2023-01-30T22:43:28.615Z,-10904.06
2023-01-30T22:46:38.628Z,-10897.91
2023-01-30T22:49:44.966Z,-10892.03
2023-01-30T22:52:50.960Z,-10900.44
2023-01-30T22:55:57.264Z,-10906.88
2023-01-30T22:59:04.617Z,-10904.91
2023-01-30T23:02:12.384Z,-10906.31
2023-01-30T23:05:18.905Z,-10908.56
2023-01-30T23:08:25.783Z,-10903.22
2023-01-30T23:11:35.812Z,-10908.00
2023-01-30T23:14:43.093Z,-10905.47
2023-01-30T23:18:07.935Z,-10893.84
2023-01-30T23:21:16.166Z,-10900.44
2023-01-30T23:24:22.789Z,-10902.66
2023-01-30T23:27:32.125Z,-10909.13
2023-01-30T23:30:40.230Z,-10913.03
2023-01-30T23:33:47.849Z,-10909.69
2023-01-30T23:36:55.063Z,-10906.31
2023-01-30T23:40:03.332Z,-10908.84
2023-01-30T23:43:09.564Z,-10912.47
2023-01-30T23:46:19.754Z,-10913.59
2023-01-30T23:49:27.563Z,-10904.34
2023-01-30T23:52:33.815Z,-10901.56
2023-01-30T23:55:39.931Z,-10912.06
2023-01-30T23:58:47.115Z,-10909.81
